sensor_id;sensor_type;location;lat;lon;timestamp;pressure;altitude;pressure_sealevel;temperature;humidity
70314;BME280;57725;47.526;18.986;2023-04-06T00:02:09;100007.50;;;7.99;77.53
70314;BME280;57725;47.526;18.986;2023-04-06T00:04:35;100009.25;;;7.98;77.73
70314;BME280;57725;47.526;18.986;2023-04-06T00:07:00;99998.84;;;7.98;77.77
70314;BME280;57725;47.526;18.986;2023-04-06T00:09:26;99995.38;;;7.98;77.83
70314;BME280;57725;47.526;18.986;2023-04-06T00:11:54;100004.94;;;7.97;77.76
70314;BME280;57725;47.526;18.986;2023-04-06T00:14:23;99998.94;;;7.95;77.60
70314;BME280;57725;47.526;18.986;2023-04-06T00:16:51;100009.28;;;7.97;77.96
70314;BME280;57725;47.526;18.986;2023-04-06T00:19:18;99998.09;;;7.95;77.96
70314;BME280;57725;47.526;18.986;2023-04-06T00:21:44;99996.38;;;7.94;78.04
70314;BME280;57725;47.526;18.986;2023-04-06T00:24:12;99980.84;;;7.91;77.97
70314;BME280;57725;47.526;18.986;2023-04-06T00:26:39;99992.03;;;7.94;77.95
70314;BME280;57725;47.526;18.986;2023-04-06T00:29:05;99994.63;;;7.94;77.78
70314;BME280;57725;47.526;18.986;2023-04-06T00:31:30;100003.34;;;7.93;78.54
70314;BME280;57725;47.526;18.986;2023-04-06T00:33:58;99983.41;;;7.92;78.32
70314;BME280;57725;47.526;18.986;2023-04-06T00:36:24;99979.09;;;7.91;78.08
70314;BME280;57725;47.526;18.986;2023-04-06T00:38:50;99982.56;;;7.92;78.23
70314;BME280;57725;47.526;18.986;2023-04-06T00:41:20;99976.50;;;7.91;78.41
70314;BME280;57725;47.526;18.986;2023-04-06T00:43:46;99969.59;;;7.90;78.58
70314;BME280;57725;47.526;18.986;2023-04-06T00:46:11;99976.59;;;7.88;78.30
70314;BME280;57725;47.526;18.986;2023-04-06T00:48:39;99965.31;;;7.88;78.23
70314;BME280;57725;47.526;18.986;2023-04-06T00:51:05;99971.38;;;7.88;77.96
70314;BME280;57725;47.526;18.986;2023-04-06T00:53:31;99968.81;;;7.87;77.99
70314;BME280;57725;47.526;18.986;2023-04-06T00:55:56;99972.28;;;7.87;78.35
70314;BME280;57725;47.526;18.986;2023-04-06T00:58:22;99963.63;;;7.87;78.04
70314;BME280;57725;47.526;18.986;2023-04-06T01:00:47;99966.25;;;7.85;78.50
70314;BME280;57725;47.526;18.986;2023-04-06T01:03:13;99964.50;;;7.86;78.39
70314;BME280;57725;47.526;18.986;2023-04-06T01:05:41;99968.84;;;7.85;78.22
70314;BME280;57725;47.526;18.986;2023-04-06T01:08:07;99976.75;;;7.84;78.55
70314;BME280;57725;47.526;18.986;2023-04-06T01:10:35;99971.53;;;7.84;78.51
70314;BME280;57725;47.526;18.986;2023-04-06T01:13:01;99978.50;;;7.83;78.92
70314;BME280;57725;47.526;18.986;2023-04-06T01:15:29;99980.25;;;7.83;78.54
70314;BME280;57725;47.526;18.986;2023-04-06T01:17:54;99984.59;;;7.82;78.56
70314;BME280;57725;47.526;18.986;2023-04-06T01:20:22;99975.94;;;7.82;78.51
70314;BME280;57725;47.526;18.986;2023-04-06T01:22:48;99982.00;;;7.82;78.88
70314;BME280;57725;47.526;18.986;2023-04-06T01:25:13;99977.72;;;7.80;78.74
70314;BME280;57725;47.526;18.986;2023-04-06T01:27:39;99976.88;;;7.79;78.81
70314;BME280;57725;47.526;18.986;2023-04-06T01:30:05;99974.25;;;7.79;78.52
70314;BME280;57725;47.526;18.986;2023-04-06T01:32:31;99970.81;;;7.79;79.06
70314;BME280;57725;47.526;18.986;2023-04-06T01:34:59;99959.59;;;7.77;78.75
70314;BME280;57725;47.526;18.986;2023-04-06T01:37:24;99963.91;;;7.78;78.36
70314;BME280;57725;47.526;18.986;2023-04-06T01:39:52;99970.84;;;7.77;78.94
70314;BME280;57725;47.526;18.986;2023-04-06T01:42:26;99972.59;;;7.77;78.88
70314;BME280;57725;47.526;18.986;2023-04-06T01:44:53;99970.03;;;7.75;78.87
70314;BME280;57725;47.526;18.986;2023-04-06T01:47:18;99967.44;;;7.75;78.92
70314;BME280;57725;47.526;18.986;2023-04-06T01:49:43;99964.84;;;7.75;78.99
70314;BME280;57725;47.526;18.986;2023-04-06T01:52:14;99970.94;;;7.74;79.00
70314;BME280;57725;47.526;18.986;2023-04-06T01:54:40;99971.78;;;7.75;79.11
70314;BME280;57725;47.526;18.986;2023-04-06T01:57:10;99966.63;;;7.73;79.09
70314;BME280;57725;47.526;18.986;2023-04-06T01:59:37;99964.88;;;7.74;79.45
70314;BME280;57725;47.526;18.986;2023-04-06T02:02:06;99959.75;;;7.72;79.28
70314;BME280;57725;47.526;18.986;2023-04-06T02:04:31;99959.75;;;7.72;79.09
70314;BME280;57725;47.526;18.986;2023-04-06T02:06:56;99962.34;;;7.72;79.25
70314;BME280;57725;47.526;18.986;2023-04-06T02:09:22;99958.88;;;7.72;79.20
70314;BME280;57725;47.526;18.986;2023-04-06T02:11:47;99950.22;;;7.71;79.13
70314;BME280;57725;47.526;18.986;2023-04-06T02:14:13;99957.22;;;7.69;79.45
70314;BME280;57725;47.526;18.986;2023-04-06T02:16:40;99949.41;;;7.69;79.35
70314;BME280;57725;47.526;18.986;2023-04-06T02:19:08;99945.97;;;7.69;79.07
70314;BME280;57725;47.526;18.986;2023-04-06T02:21:33;99943.34;;;7.69;79.35
70314;BME280;57725;47.526;18.986;2023-04-06T02:23:59;99942.50;;;7.68;79.32
70314;BME280;57725;47.526;18.986;2023-04-06T02:26:24;99939.91;;;7.68;79.04
70314;BME280;57725;47.526;18.986;2023-04-06T02:28:49;99945.09;;;7.68;79.21
70314;BME280;57725;47.526;18.986;2023-04-06T02:31:17;99933.88;;;7.66;79.36
70314;BME280;57725;47.526;18.986;2023-04-06T02:33:45;99936.50;;;7.66;79.51
70314;BME280;57725;47.526;18.986;2023-04-06T02:36:13;99937.44;;;7.63;79.09
70314;BME280;57725;47.526;18.986;2023-04-06T02:38:38;99928.75;;;7.63;79.40
70314;BME280;57725;47.526;18.986;2023-04-06T02:41:06;99933.13;;;7.62;79.38
70314;BME280;57725;47.526;18.986;2023-04-06T02:43:33;99927.91;;;7.62;79.27
70314;BME280;57725;47.526;18.986;2023-04-06T02:46:00;99937.47;;;7.62;79.20
70314;BME280;57725;47.526;18.986;2023-04-06T02:48:25;99934.88;;;7.62;79.69
70314;BME280;57725;47.526;18.986;2023-04-06T02:50:51;99934.88;;;7.62;79.56
70314;BME280;57725;47.526;18.986;2023-04-06T02:53:16;99927.13;;;7.60;79.45
70314;BME280;57725;47.526;18.986;2023-04-06T02:55:41;99926.31;;;7.58;79.66
70314;BME280;57725;47.526;18.986;2023-04-06T02:58:09;99923.69;;;7.60;79.85
70314;BME280;57725;47.526;18.986;2023-04-06T03:00:35;99925.47;;;7.58;79.75
70314;BME280;57725;47.526;18.986;2023-04-06T03:03:03;99917.66;;;7.58;79.65
70314;BME280;57725;47.526;18.986;2023-04-06T03:05:29;99926.38;;;7.57;79.74
70314;BME280;57725;47.526;18.986;2023-04-06T03:07:54;99916.88;;;7.54;79.16
70314;BME280;57725;47.526;18.986;2023-04-06T03:10:20;99916.00;;;7.55;79.62
70314;BME280;57725;47.526;18.986;2023-04-06T03:12:47;99917.75;;;7.55;79.36
70314;BME280;57725;47.526;18.986;2023-04-06T03:15:13;99925.53;;;7.55;79.48
70314;BME280;57725;47.526;18.986;2023-04-06T03:17:38;99915.16;;;7.55;79.59
70314;BME280;57725;47.526;18.986;2023-04-06T03:20:09;99918.63;;;7.54;79.36
70314;BME280;57725;47.526;18.986;2023-04-06T03:22:37;99923.00;;;7.53;79.47
70314;BME280;57725;47.526;18.986;2023-04-06T03:25:03;99916.06;;;7.52;79.77
70314;BME280;57725;47.526;18.986;2023-04-06T03:27:31;99915.22;;;7.52;79.77
70314;BME280;57725;47.526;18.986;2023-04-06T03:29:57;99925.63;;;7.52;79.40
70314;BME280;57725;47.526;18.986;2023-04-06T03:32:23;99917.88;;;7.50;79.57
70314;BME280;57725;47.526;18.986;2023-04-06T03:34:53;99924.78;;;7.51;79.60
70314;BME280;57725;47.526;18.986;2023-04-06T03:37:21;99925.66;;;7.50;79.38
70314;BME280;57725;47.526;18.986;2023-04-06T03:39:47;99927.44;;;7.50;79.55
70314;BME280;57725;47.526;18.986;2023-04-06T03:42:12;99923.16;;;7.49;79.37
70314;BME280;57725;47.526;18.986;2023-04-06T03:44:38;99917.09;;;7.48;79.59
70314;BME280;57725;47.526;18.986;2023-04-06T03:47:03;99928.38;;;7.47;79.40
70314;BME280;57725;47.526;18.986;2023-04-06T03:49:31;99920.63;;;7.46;79.55
70314;BME280;57725;47.526;18.986;2023-04-06T03:52:00;99915.47;;;7.44;79.91
70314;BME280;57725;47.526;18.986;2023-04-06T03:54:26;99925.81;;;7.46;79.78
70314;BME280;57725;47.526;18.986;2023-04-06T03:56:54;99917.16;;;7.45;79.51
70314;BME280;57725;47.526;18.986;2023-04-06T03:59:20;99914.56;;;7.45;79.71
70314;BME280;57725;47.526;18.986;2023-04-06T04:01:45;99918.06;;;7.44;79.51
70314;BME280;57725;47.526;18.986;2023-04-06T04:04:10;99913.75;;;7.43;79.54
70314;BME280;57725;47.526;18.986;2023-04-06T04:06:40;99918.97;;;7.43;79.50
70314;BME280;57725;47.526;18.986;2023-04-06T04:09:08;99914.66;;;7.42;79.56
70314;BME280;57725;47.526;18.986;2023-04-06T04:11:34;99908.59;;;7.42;79.63
70314;BME280;57725;47.526;18.986;2023-04-06T04:13:59;99911.19;;;7.42;79.88
70314;BME280;57725;47.526;18.986;2023-04-06T04:16:25;99917.28;;;7.41;79.40
70314;BME280;57725;47.526;18.986;2023-04-06T04:18:53;99904.28;;;7.41;79.83
70314;BME280;57725;47.526;18.986;2023-04-06T04:21:18;99911.22;;;7.40;79.99
70314;BME280;57725;47.526;18.986;2023-04-06T04:23:43;99913.84;;;7.40;79.72
70314;BME280;57725;47.526;18.986;2023-04-06T04:26:09;99909.53;;;7.39;79.91
70314;BME280;57725;47.526;18.986;2023-04-06T04:28:35;99907.00;;;7.38;80.10
70314;BME280;57725;47.526;18.986;2023-04-06T04:31:00;99907.00;;;7.38;80.02
70314;BME280;57725;47.526;18.986;2023-04-06T04:33:26;99913.09;;;7.37;79.63
70314;BME280;57725;47.526;18.986;2023-04-06T04:35:53;99904.44;;;7.36;80.13
70314;BME280;57725;47.526;18.986;2023-04-06T04:38:19;99909.69;;;7.35;79.70
70314;BME280;57725;47.526;18.986;2023-04-06T04:40:45;99905.34;;;7.35;80.06
70314;BME280;57725;47.526;18.986;2023-04-06T04:43:10;99908.81;;;7.34;79.81
70314;BME280;57725;47.526;18.986;2023-04-06T04:45:36;99888.91;;;7.33;79.80
70314;BME280;57725;47.526;18.986;2023-04-06T04:48:03;99899.31;;;7.33;80.18
70314;BME280;57725;47.526;18.986;2023-04-06T04:50:32;99893.25;;;7.33;79.79
70314;BME280;57725;47.526;18.986;2023-04-06T04:52:58;99900.16;;;7.34;79.87
70314;BME280;57725;47.526;18.986;2023-04-06T04:55:26;99900.16;;;7.34;79.70
70314;BME280;57725;47.526;18.986;2023-04-06T04:57:51;99895.91;;;7.31;80.01
70314;BME280;57725;47.526;18.986;2023-04-06T05:00:17;99899.44;;;7.28;79.92
70314;BME280;57725;47.526;18.986;2023-04-06T05:02:42;99895.94;;;7.30;79.86
70314;BME280;57725;47.526;18.986;2023-04-06T05:05:08;99890.75;;;7.30;79.97
70314;BME280;57725;47.526;18.986;2023-04-06T05:07:35;99889.88;;;7.29;79.89
70314;BME280;57725;47.526;18.986;2023-04-06T05:10:03;99887.28;;;7.29;80.26
70314;BME280;57725;47.526;18.986;2023-04-06T05:12:31;99877.00;;;7.26;80.07
70314;BME280;57725;47.526;18.986;2023-04-06T05:14:57;99876.88;;;7.29;80.22
70314;BME280;57725;47.526;18.986;2023-04-06T05:17:22;99864.84;;;7.26;80.00
70314;BME280;57725;47.526;18.986;2023-04-06T05:19:50;99860.47;;;7.27;80.00
70314;BME280;57725;47.526;18.986;2023-04-06T05:22:15;99860.47;;;7.27;80.16
70314;BME280;57725;47.526;18.986;2023-04-06T05:24:43;99850.16;;;7.25;80.01
70314;BME280;57725;47.526;18.986;2023-04-06T05:27:08;99854.44;;;7.26;80.09
70314;BME280;57725;47.526;18.986;2023-04-06T05:29:37;99847.53;;;7.25;80.19
70314;BME280;57725;47.526;18.986;2023-04-06T05:32:02;99845.09;;;7.19;80.07
70314;BME280;57725;47.526;18.986;2023-04-06T05:34:28;99848.44;;;7.24;80.02
70314;BME280;57725;47.526;18.986;2023-04-06T05:36:53;99847.63;;;7.22;80.35
70314;BME280;57725;47.526;18.986;2023-04-06T05:39:19;99849.34;;;7.23;80.06
70314;BME280;57725;47.526;18.986;2023-04-06T05:41:45;99858.88;;;7.23;80.19
70314;BME280;57725;47.526;18.986;2023-04-06T05:44:13;99849.38;;;7.22;80.42
70314;BME280;57725;47.526;18.986;2023-04-06T05:46:38;99840.72;;;7.21;80.67
70314;BME280;57725;47.526;18.986;2023-04-06T05:49:04;99849.38;;;7.22;80.41
70314;BME280;57725;47.526;18.986;2023-04-06T05:51:32;99840.72;;;7.21;80.25
70314;BME280;57725;47.526;18.986;2023-04-06T05:54:01;99840.72;;;7.21;80.30
70314;BME280;57725;47.526;18.986;2023-04-06T05:56:29;99844.22;;;7.20;80.23
70314;BME280;57725;47.526;18.986;2023-04-06T05:58:59;99837.25;;;7.21;80.16
70314;BME280;57725;47.526;18.986;2023-04-06T06:01:24;99839.00;;;7.20;80.69
70314;BME280;57725;47.526;18.986;2023-04-06T06:03:52;99839.91;;;7.19;80.31
70314;BME280;57725;47.526;18.986;2023-04-06T06:06:17;99844.25;;;7.19;80.64
70314;BME280;57725;47.526;18.986;2023-04-06T06:08:43;99828.75;;;7.16;80.32
70314;BME280;57725;47.526;18.986;2023-04-06T06:11:13;99839.91;;;7.19;80.49
70314;BME280;57725;47.526;18.986;2023-04-06T06:13:39;99832.97;;;7.20;80.76
70314;BME280;57725;47.526;18.986;2023-04-06T06:16:07;99838.16;;;7.20;80.65
70314;BME280;57725;47.526;18.986;2023-04-06T06:18:32;99836.41;;;7.20;80.50
70314;BME280;57725;47.526;18.986;2023-04-06T06:21:02;99832.09;;;7.19;80.92
70314;BME280;57725;47.526;18.986;2023-04-06T06:23:30;99837.31;;;7.19;80.62
70314;BME280;57725;47.526;18.986;2023-04-06T06:25:55;99834.72;;;7.19;80.64
70314;BME280;57725;47.526;18.986;2023-04-06T06:28:26;99827.75;;;7.20;80.71
70314;BME280;57725;47.526;18.986;2023-04-06T06:30:53;99826.94;;;7.18;80.82
70314;BME280;57725;47.526;18.986;2023-04-06T06:33:24;99822.56;;;7.20;80.69
70314;BME280;57725;47.526;18.986;2023-04-06T06:35:51;99818.22;;;7.20;81.05
70314;BME280;57725;47.526;18.986;2023-04-06T06:38:19;99820.81;;;7.20;81.13
70314;BME280;57725;47.526;18.986;2023-04-06T06:40:55;99828.63;;;7.20;80.59
70314;BME280;57725;47.526;18.986;2023-04-06T06:43:20;99821.72;;;7.19;80.75
70314;BME280;57725;47.526;18.986;2023-04-06T06:45:48;99823.41;;;7.20;81.06
70314;BME280;57725;47.526;18.986;2023-04-06T06:48:14;99819.06;;;7.21;81.11
70314;BME280;57725;47.526;18.986;2023-04-06T06:50:39;99819.97;;;7.20;80.97
70314;BME280;57725;47.526;18.986;2023-04-06T06:53:07;99814.72;;;7.21;81.09
70314;BME280;57725;47.526;18.986;2023-04-06T06:55:32;99823.41;;;7.20;81.27
70314;BME280;57725;47.526;18.986;2023-04-06T06:57:58;99816.47;;;7.21;81.14
70314;BME280;57725;47.526;18.986;2023-04-06T07:00:23;99810.41;;;7.20;81.51
70314;BME280;57725;47.526;18.986;2023-04-06T07:02:51;99808.72;;;7.19;81.27
70314;BME280;57725;47.526;18.986;2023-04-06T07:05:16;99816.47;;;7.21;81.20
70314;BME280;57725;47.526;18.986;2023-04-06T07:07:42;99818.22;;;7.20;81.72
70314;BME280;57725;47.526;18.986;2023-04-06T07:10:08;99818.16;;;7.22;81.45
70314;BME280;57725;47.526;18.986;2023-04-06T07:12:36;99813.06;;;7.19;81.37
70314;BME280;57725;47.526;18.986;2023-04-06T07:15:04;99808.66;;;7.21;81.43
70314;BME280;57725;47.526;18.986;2023-04-06T07:17:30;99813.88;;;7.21;80.97
70314;BME280;57725;47.526;18.986;2023-04-06T07:19:55;99814.72;;;7.21;81.20
70314;BME280;57725;47.526;18.986;2023-04-06T07:22:23;99811.25;;;7.21;81.08
70314;BME280;57725;47.526;18.986;2023-04-06T07:24:49;99811.31;;;7.19;81.36
70314;BME280;57725;47.526;18.986;2023-04-06T07:27:15;99809.59;;;7.18;81.21
70314;BME280;57725;47.526;18.986;2023-04-06T07:29:41;99813.91;;;7.19;81.28
70314;BME280;57725;47.526;18.986;2023-04-06T07:32:09;99811.25;;;7.21;81.31
70314;BME280;57725;47.526;18.986;2023-04-06T07:34:35;99810.41;;;7.20;81.49
70314;BME280;57725;47.526;18.986;2023-04-06T07:37:03;99812.16;;;7.20;81.38
70314;BME280;57725;47.526;18.986;2023-04-06T07:39:28;99807.00;;;7.18;81.53
70314;BME280;57725;47.526;18.986;2023-04-06T07:41:54;99805.22;;;7.20;81.33
70314;BME280;57725;47.526;18.986;2023-04-06T07:44:22;99805.22;;;7.20;81.45
70314;BME280;57725;47.526;18.986;2023-04-06T07:46:47;99808.66;;;7.21;81.30
70314;BME280;57725;47.526;18.986;2023-04-06T07:49:13;99797.41;;;7.20;81.50
70314;BME280;57725;47.526;18.986;2023-04-06T07:51:39;99806.06;;;7.21;81.58
70314;BME280;57725;47.526;18.986;2023-04-06T07:54:05;99803.47;;;7.21;81.70
70314;BME280;57725;47.526;18.986;2023-04-06T07:56:33;99798.25;;;7.21;81.51
70314;BME280;57725;47.526;18.986;2023-04-06T07:58:58;99798.25;;;7.21;81.58
70314;BME280;57725;47.526;18.986;2023-04-06T08:01:24;99801.72;;;7.21;81.62
70314;BME280;57725;47.526;18.986;2023-04-06T08:03:50;99804.28;;;7.23;81.64
70314;BME280;57725;47.526;18.986;2023-04-06T08:06:18;99801.72;;;7.21;81.68
70314;BME280;57725;47.526;18.986;2023-04-06T08:08:43;99808.66;;;7.21;81.73
70314;BME280;57725;47.526;18.986;2023-04-06T08:11:09;99791.34;;;7.20;81.70
70314;BME280;57725;47.526;18.986;2023-04-06T08:13:41;99790.47;;;7.21;81.57
70314;BME280;57725;47.526;18.986;2023-04-06T08:16:08;99790.47;;;7.21;81.86
70314;BME280;57725;47.526;18.986;2023-04-06T08:18:42;99801.72;;;7.21;81.95
70314;BME280;57725;47.526;18.986;2023-04-06T08:21:07;99793.88;;;7.23;81.75
70314;BME280;57725;47.526;18.986;2023-04-06T08:23:35;99791.28;;;7.23;81.67
70314;BME280;57725;47.526;18.986;2023-04-06T08:26:05;99788.69;;;7.23;81.74
70314;BME280;57725;47.526;18.986;2023-04-06T08:28:31;99788.69;;;7.23;81.42
70314;BME280;57725;47.526;18.986;2023-04-06T08:30:56;99780.88;;;7.23;81.80
70314;BME280;57725;47.526;18.986;2023-04-06T08:33:21;99780.88;;;7.23;81.54
70314;BME280;57725;47.526;18.986;2023-04-06T08:35:49;99773.06;;;7.23;81.87
70314;BME280;57725;47.526;18.986;2023-04-06T08:38:18;99771.31;;;7.23;81.63
70314;BME280;57725;47.526;18.986;2023-04-06T08:40:50;99767.88;;;7.23;81.82
70314;BME280;57725;47.526;18.986;2023-04-06T08:43:20;99766.09;;;7.25;81.58
70314;BME280;57725;47.526;18.986;2023-04-06T08:45:48;99771.28;;;7.25;81.84
70314;BME280;57725;47.526;18.986;2023-04-06T08:48:14;99761.72;;;7.25;82.09
70314;BME280;57725;47.526;18.986;2023-04-06T08:50:43;99760.03;;;7.24;82.11
70314;BME280;57725;47.526;18.986;2023-04-06T08:53:11;99762.59;;;7.26;82.23
70314;BME280;57725;47.526;18.986;2023-04-06T08:55:39;99760.84;;;7.26;82.05
70314;BME280;57725;47.526;18.986;2023-04-06T08:58:06;99756.47;;;7.27;82.23
70314;BME280;57725;47.526;18.986;2023-04-06T09:00:38;99764.25;;;7.27;82.06
70314;BME280;57725;47.526;18.986;2023-04-06T09:03:07;99752.97;;;7.28;82.22
70314;BME280;57725;47.526;18.986;2023-04-06T09:05:35;99750.38;;;7.28;82.39
70314;BME280;57725;47.526;18.986;2023-04-06T09:08:03;99755.56;;;7.28;82.05
70314;BME280;57725;47.526;18.986;2023-04-06T09:10:28;99750.31;;;7.30;82.21
70314;BME280;57725;47.526;18.986;2023-04-06T09:13:05;99749.47;;;7.29;82.30
70314;BME280;57725;47.526;18.986;2023-04-06T09:15:30;99739.97;;;7.28;82.21
70314;BME280;57725;47.526;18.986;2023-04-06T09:17:56;99746.81;;;7.31;82.37
70314;BME280;57725;47.526;18.986;2023-04-06T09:20:26;99739.06;;;7.29;82.21
70314;BME280;57725;47.526;18.986;2023-04-06T09:22:53;99744.22;;;7.31;82.29
70314;BME280;57725;47.526;18.986;2023-04-06T09:25:25;99741.56;;;7.32;82.32
70314;BME280;57725;47.526;18.986;2023-04-06T09:28:03;99732.94;;;7.32;82.46
70314;BME280;57725;47.526;18.986;2023-04-06T09:30:29;99722.56;;;7.30;82.66
70314;BME280;57725;47.526;18.986;2023-04-06T09:32:57;99732.88;;;7.33;82.91
70314;BME280;57725;47.526;18.986;2023-04-06T09:35:24;99731.19;;;7.32;82.44
70314;BME280;57725;47.526;18.986;2023-04-06T09:37:54;99730.28;;;7.33;82.30
70314;BME280;57725;47.526;18.986;2023-04-06T09:40:21;99734.59;;;7.34;82.46
70314;BME280;57725;47.526;18.986;2023-04-06T09:43:01;99722.47;;;7.33;82.65
70314;BME280;57725;47.526;18.986;2023-04-06T09:45:29;99727.59;;;7.36;82.68
70314;BME280;57725;47.526;18.986;2023-04-06T09:47:58;99725.00;;;7.36;82.24
70314;BME280;57725;47.526;18.986;2023-04-06T09:50:25;99725.84;;;7.37;82.50
70314;BME280;57725;47.526;18.986;2023-04-06T09:52:54;99724.94;;;7.38;82.59
70314;BME280;57725;47.526;18.986;2023-04-06T09:55:45;99725.00;;;7.36;82.68
70314;BME280;57725;47.526;18.986;2023-04-06T09:58:18;99718.00;;;7.38;82.46
70314;BME280;57725;47.526;18.986;2023-04-06T10:00:51;99710.19;;;7.38;82.66
70314;BME280;57725;47.526;18.986;2023-04-06T10:06:07;99712.72;;;7.40;82.68
70314;BME280;57725;47.526;18.986;2023-04-06T10:08:37;99714.41;;;7.41;82.81
70314;BME280;57725;47.526;18.986;2023-04-06T10:11:08;99718.78;;;7.40;83.02
70314;BME280;57725;47.526;18.986;2023-04-06T10:13:38;99707.50;;;7.40;82.96
70314;BME280;57725;47.526;18.986;2023-04-06T10:16:07;99710.91;;;7.42;83.04
70314;BME280;57725;47.526;18.986;2023-04-06T10:18:33;99703.97;;;7.42;83.04
70314;BME280;57725;47.526;18.986;2023-04-06T10:21:06;99704.81;;;7.43;83.03
70314;BME280;57725;47.526;18.986;2023-04-06T10:23:39;99702.19;;;7.44;82.75
70314;BME280;57725;47.526;18.986;2023-04-06T10:26:16;99692.63;;;7.45;83.09
70314;BME280;57725;47.526;18.986;2023-04-06T10:28:47;99690.03;;;7.45;82.99
70314;BME280;57725;47.526;18.986;2023-04-06T10:31:23;99685.66;;;7.45;83.02
70314;BME280;57725;47.526;18.986;2023-04-06T10:34:01;99686.47;;;7.47;83.16
70314;BME280;57725;47.526;18.986;2023-04-06T10:36:31;99682.13;;;7.48;83.15
70314;BME280;57725;47.526;18.986;2023-04-06T10:39:04;99677.78;;;7.48;83.14
70314;BME280;57725;47.526;18.986;2023-04-06T10:41:56;99678.63;;;7.49;83.37
70314;BME280;57725;47.526;18.986;2023-04-06T10:44:31;99683.81;;;7.49;83.41
70314;BME280;57725;47.526;18.986;2023-04-06T10:47:15;99683.75;;;7.50;83.28
70314;BME280;57725;47.526;18.986;2023-04-06T10:49:44;99678.53;;;7.50;83.28
70314;BME280;57725;47.526;18.986;2023-04-06T10:52:09;99668.09;;;7.52;83.21
70314;BME280;57725;47.526;18.986;2023-04-06T10:54:41;99674.16;;;7.52;83.37
70314;BME280;57725;47.526;18.986;2023-04-06T10:57:07;99673.25;;;7.53;83.24
70314;BME280;57725;47.526;18.986;2023-04-06T10:59:35;99669.75;;;7.54;83.47
70314;BME280;57725;47.526;18.986;2023-04-06T11:02:00;99672.34;;;7.54;83.47
70314;BME280;57725;47.526;18.986;2023-04-06T11:04:28;99667.09;;;7.56;83.47
70314;BME280;57725;47.526;18.986;2023-04-06T11:06:54;99675.75;;;7.56;83.65
70314;BME280;57725;47.526;18.986;2023-04-06T11:09:28;99657.59;;;7.55;83.76
70314;BME280;57725;47.526;18.986;2023-04-06T11:11:56;99665.31;;;7.58;83.54
70314;BME280;57725;47.526;18.986;2023-04-06T11:14:22;99669.59;;;7.59;83.62
70314;BME280;57725;47.526;18.986;2023-04-06T11:16:47;99668.72;;;7.60;83.75
70314;BME280;57725;47.526;18.986;2023-04-06T11:19:16;99660.06;;;7.59;83.60
70314;BME280;57725;47.526;18.986;2023-04-06T11:21:47;99653.94;;;7.60;83.68
70314;BME280;57725;47.526;18.986;2023-04-06T11:26:54;99651.28;;;7.62;83.99
70314;BME280;57725;47.526;18.986;2023-04-06T11:29:22;99656.44;;;7.63;84.02
70314;BME280;57725;47.526;18.986;2023-04-06T11:31:49;99652.06;;;7.64;84.15
70314;BME280;57725;47.526;18.986;2023-04-06T11:36:47;99645.06;;;7.66;84.11
70314;BME280;57725;47.526;18.986;2023-04-06T11:39:20;99643.31;;;7.67;84.15
70314;BME280;57725;47.526;18.986;2023-04-06T11:41:57;99640.66;;;7.68;84.22
70314;BME280;57725;47.526;18.986;2023-04-06T11:47:05;99638.03;;;7.70;84.30
70314;BME280;57725;47.526;18.986;2023-04-06T11:49:36;99644.94;;;7.71;84.15
70314;BME280;57725;47.526;18.986;2023-04-06T11:52:14;99637.06;;;7.72;84.38
70314;BME280;57725;47.526;18.986;2023-04-06T11:54:39;99635.31;;;7.73;84.51
70314;BME280;57725;47.526;18.986;2023-04-06T11:57:07;99631.00;;;7.72;84.54
70314;BME280;57725;47.526;18.986;2023-04-06T11:59:35;99636.09;;;7.75;84.52
70314;BME280;57725;47.526;18.986;2023-04-06T12:02:04;99637.78;;;7.76;84.30
70314;BME280;57725;47.526;18.986;2023-04-06T12:04:32;99636.03;;;7.76;84.45
70314;BME280;57725;47.526;18.986;2023-04-06T12:07:04;99628.19;;;7.78;84.30
70314;BME280;57725;47.526;18.986;2023-04-06T12:09:32;99632.59;;;7.76;84.26
70314;BME280;57725;47.526;18.986;2023-04-06T12:11:57;99628.13;;;7.79;84.34
70314;BME280;57725;47.526;18.986;2023-04-06T12:14:23;99626.38;;;7.80;84.04
70314;BME280;57725;47.526;18.986;2023-04-06T12:16:51;99627.28;;;7.79;84.44
70314;BME280;57725;47.526;18.986;2023-04-06T12:19:16;99628.94;;;7.81;84.45
70314;BME280;57725;47.526;18.986;2023-04-06T12:21:42;99622.81;;;7.82;84.33
70314;BME280;57725;47.526;18.986;2023-04-06T12:24:07;99626.28;;;7.83;84.28
70314;BME280;57725;47.526;18.986;2023-04-06T12:26:35;99620.22;;;7.82;84.25
70314;BME280;57725;47.526;18.986;2023-04-06T12:29:02;99623.63;;;7.84;84.57
70314;BME280;57725;47.526;18.986;2023-04-06T12:31:35;99627.91;;;7.85;84.27
70314;BME280;57725;47.526;18.986;2023-04-06T12:34:02;99625.25;;;7.87;84.28
70314;BME280;57725;47.526;18.986;2023-04-06T12:36:34;99620.88;;;7.87;84.06
70314;BME280;57725;47.526;18.986;2023-04-06T12:39:04;99622.59;;;7.88;84.16
70314;BME280;57725;47.526;18.986;2023-04-06T12:41:30;99625.19;;;7.88;84.09
70314;BME280;57725;47.526;18.986;2023-04-06T12:43:56;99621.69;;;7.89;84.25
70314;BME280;57725;47.526;18.986;2023-04-06T12:46:24;99619.88;;;7.91;84.08
70314;BME280;57725;47.526;18.986;2023-04-06T12:48:51;99620.78;;;7.90;84.07
70314;BME280;57725;47.526;18.986;2023-04-06T12:51:18;99624.19;;;7.92;84.10
70314;BME280;57725;47.526;18.986;2023-04-06T12:53:44;99615.44;;;7.95;83.89
70314;BME280;57725;47.526;18.986;2023-04-06T12:56:16;99611.06;;;7.95;83.91
70314;BME280;57725;47.526;18.986;2023-04-06T12:58:46;99616.19;;;7.97;83.68
70314;BME280;57725;47.526;18.986;2023-04-06T13:01:12;99603.13;;;7.98;84.08
70314;BME280;57725;47.526;18.986;2023-04-06T13:03:41;99611.78;;;7.99;83.96
70314;BME280;57725;47.526;18.986;2023-04-06T13:06:09;99621.31;;;8.00;83.63
70314;BME280;57725;47.526;18.986;2023-04-06T13:08:36;99621.25;;;8.02;83.96
70314;BME280;57725;47.526;18.986;2023-04-06T13:11:05;99611.69;;;8.02;83.58
70314;BME280;57725;47.526;18.986;2023-04-06T13:13:33;99618.53;;;8.05;83.65